sensor_id;sensor_type;location;lat;lon;timestamp;P1;durP1;ratioP1;P2;durP2;ratioP2
8704;SDS011;4389;41.932;25.904;2023-06-24T00:02:02;12.97;;;5.83;;
8704;SDS011;4389;41.932;25.904;2023-06-24T00:04:31;7.77;;;5.87;;
8704;SDS011;4389;41.932;25.904;2023-06-24T00:06:58;12.70;;;6.33;;
8704;SDS011;4389;41.932;25.904;2023-06-24T00:09:25;7.63;;;6.13;;
8704;SDS011;4389;41.932;25.904;2023-06-24T00:11:53;8.30;;;5.93;;
8704;SDS011;4389;41.932;25.904;2023-06-24T00:14:20;9.80;;;7.17;;
8704;SDS011;4389;41.932;25.904;2023-06-24T00:16:49;11.30;;;7.37;;
8704;SDS011;4389;41.932;25.904;2023-06-24T00:19:18;6.73;;;6.00;;
8704;SDS011;4389;41.932;25.904;2023-06-24T00:21:47;8.40;;;5.77;;
8704;SDS011;4389;41.932;25.904;2023-06-24T00:24:16;6.23;;;5.60;;
8704;SDS011;4389;41.932;25.904;2023-06-24T00:26:44;7.10;;;4.90;;
8704;SDS011;4389;41.932;25.904;2023-06-24T00:29:12;7.60;;;6.13;;
8704;SDS011;4389;41.932;25.904;2023-06-24T00:31:39;11.87;;;6.87;;
8704;SDS011;4389;41.932;25.904;2023-06-24T00:34:05;8.30;;;7.43;;
8704;SDS011;4389;41.932;25.904;2023-06-24T00:36:32;11.40;;;6.00;;
8704;SDS011;4389;41.932;25.904;2023-06-24T00:39:02;7.70;;;6.97;;
8704;SDS011;4389;41.932;25.904;2023-06-24T00:41:29;9.37;;;6.70;;
8704;SDS011;4389;41.932;25.904;2023-06-24T00:43:56;8.27;;;6.70;;
8704;SDS011;4389;41.932;25.904;2023-06-24T00:46:24;7.97;;;7.13;;
8704;SDS011;4389;41.932;25.904;2023-06-24T00:48:51;8.97;;;5.97;;
8704;SDS011;4389;41.932;25.904;2023-06-24T00:51:18;9.27;;;6.10;;
8704;SDS011;4389;41.932;25.904;2023-06-24T00:53:46;8.47;;;6.67;;
8704;SDS011;4389;41.932;25.904;2023-06-24T00:56:16;9.03;;;6.40;;
8704;SDS011;4389;41.932;25.904;2023-06-24T00:58:44;9.27;;;7.40;;
8704;SDS011;4389;41.932;25.904;2023-06-24T01:01:12;10.13;;;6.63;;
8704;SDS011;4389;41.932;25.904;2023-06-24T01:03:40;8.20;;;5.90;;
8704;SDS011;4389;41.932;25.904;2023-06-24T01:06:07;7.10;;;6.03;;
8704;SDS011;4389;41.932;25.904;2023-06-24T01:08:34;12.63;;;7.83;;
8704;SDS011;4389;41.932;25.904;2023-06-24T01:11:01;7.23;;;6.30;;
8704;SDS011;4389;41.932;25.904;2023-06-24T01:13:29;11.97;;;7.27;;
8704;SDS011;4389;41.932;25.904;2023-06-24T01:15:57;8.57;;;7.40;;
8704;SDS011;4389;41.932;25.904;2023-06-24T01:18:30;8.70;;;7.30;;
8704;SDS011;4389;41.932;25.904;2023-06-24T01:21:03;9.60;;;6.77;;
8704;SDS011;4389;41.932;25.904;2023-06-24T01:23:42;7.87;;;7.17;;
8704;SDS011;4389;41.932;25.904;2023-06-24T01:29:45;8.70;;;7.80;;
8704;SDS011;4389;41.932;25.904;2023-06-24T01:32:25;7.73;;;6.13;;
8704;SDS011;4389;41.932;25.904;2023-06-24T01:35:00;8.90;;;6.60;;
8704;SDS011;4389;41.932;25.904;2023-06-24T01:37:35;7.60;;;6.80;;
8704;SDS011;4389;41.932;25.904;2023-06-24T01:40:09;11.27;;;7.17;;
8704;SDS011;4389;41.932;25.904;2023-06-24T01:42:39;9.90;;;6.93;;
8704;SDS011;4389;41.932;25.904;2023-06-24T01:45:09;10.37;;;7.67;;
8704;SDS011;4389;41.932;25.904;2023-06-24T01:47:42;9.93;;;7.10;;
8704;SDS011;4389;41.932;25.904;2023-06-24T01:50:12;11.03;;;6.90;;
8704;SDS011;4389;41.932;25.904;2023-06-24T01:52:40;14.93;;;7.53;;
8704;SDS011;4389;41.932;25.904;2023-06-24T01:55:12;9.47;;;6.57;;
8704;SDS011;4389;41.932;25.904;2023-06-24T01:57:43;9.60;;;7.23;;
8704;SDS011;4389;41.932;25.904;2023-06-24T02:00:11;10.37;;;7.57;;
8704;SDS011;4389;41.932;25.904;2023-06-24T02:02:40;10.40;;;7.57;;
8704;SDS011;4389;41.932;25.904;2023-06-24T02:05:08;15.63;;;7.57;;
8704;SDS011;4389;41.932;25.904;2023-06-24T02:07:36;12.53;;;7.73;;
8704;SDS011;4389;41.932;25.904;2023-06-24T02:10:05;8.57;;;7.67;;
8704;SDS011;4389;41.932;25.904;2023-06-24T02:12:34;10.80;;;7.17;;
8704;SDS011;4389;41.932;25.904;2023-06-24T02:15:02;9.93;;;7.10;;
8704;SDS011;4389;41.932;25.904;2023-06-24T02:17:32;10.60;;;7.93;;
8704;SDS011;4389;41.932;25.904;2023-06-24T02:20:02;11.87;;;7.47;;
8704;SDS011;4389;41.932;25.904;2023-06-24T02:22:32;10.90;;;7.83;;
8704;SDS011;4389;41.932;25.904;2023-06-24T02:24:59;12.53;;;7.17;;
8704;SDS011;4389;41.932;25.904;2023-06-24T02:27:26;9.93;;;7.03;;
8704;SDS011;4389;41.932;25.904;2023-06-24T02:29:55;13.00;;;8.03;;
8704;SDS011;4389;41.932;25.904;2023-06-24T02:32:23;9.50;;;7.07;;
8704;SDS011;4389;41.932;25.904;2023-06-24T02:34:50;11.30;;;7.30;;
8704;SDS011;4389;41.932;25.904;2023-06-24T02:37:21;7.53;;;6.80;;
8704;SDS011;4389;41.932;25.904;2023-06-24T02:39:48;10.70;;;6.87;;
8704;SDS011;4389;41.932;25.904;2023-06-24T02:42:15;7.63;;;6.70;;
8704;SDS011;4389;41.932;25.904;2023-06-24T02:44:42;7.47;;;6.70;;
8704;SDS011;4389;41.932;25.904;2023-06-24T02:47:10;7.83;;;7.03;;
8704;SDS011;4389;41.932;25.904;2023-06-24T02:49:39;13.67;;;7.07;;
8704;SDS011;4389;41.932;25.904;2023-06-24T02:52:08;17.20;;;6.63;;
8704;SDS011;4389;41.932;25.904;2023-06-24T02:54:37;8.80;;;6.40;;
8704;SDS011;4389;41.932;25.904;2023-06-24T02:57:05;17.70;;;6.97;;
8704;SDS011;4389;41.932;25.904;2023-06-24T02:59:34;10.90;;;6.87;;
8704;SDS011;4389;41.932;25.904;2023-06-24T03:02:01;6.47;;;5.87;;
8704;SDS011;4389;41.932;25.904;2023-06-24T03:04:30;8.27;;;6.20;;
8704;SDS011;4389;41.932;25.904;2023-06-24T03:06:57;7.10;;;6.40;;
8704;SDS011;4389;41.932;25.904;2023-06-24T03:09:26;10.07;;;5.80;;
8704;SDS011;4389;41.932;25.904;2023-06-24T03:11:54;7.63;;;6.47;;
8704;SDS011;4389;41.932;25.904;2023-06-24T03:14:21;9.07;;;6.30;;
8704;SDS011;4389;41.932;25.904;2023-06-24T03:16:48;8.23;;;5.73;;
8704;SDS011;4389;41.932;25.904;2023-06-24T03:19:15;12.77;;;6.17;;
8704;SDS011;4389;41.932;25.904;2023-06-24T03:21:42;13.10;;;6.40;;
8704;SDS011;4389;41.932;25.904;2023-06-24T03:24:08;13.80;;;6.57;;
8704;SDS011;4389;41.932;25.904;2023-06-24T03:26:37;13.90;;;6.57;;
8704;SDS011;4389;41.932;25.904;2023-06-24T03:29:06;12.57;;;6.57;;
8704;SDS011;4389;41.932;25.904;2023-06-24T03:31:33;25.37;;;6.90;;
8704;SDS011;4389;41.932;25.904;2023-06-24T03:34:00;15.33;;;6.57;;
8704;SDS011;4389;41.932;25.904;2023-06-24T03:36:27;20.43;;;7.47;;
8704;SDS011;4389;41.932;25.904;2023-06-24T03:38:54;16.73;;;8.63;;
8704;SDS011;4389;41.932;25.904;2023-06-24T03:41:21;12.40;;;9.13;;
8704;SDS011;4389;41.932;25.904;2023-06-24T03:43:49;11.73;;;6.53;;
8704;SDS011;4389;41.932;25.904;2023-06-24T03:46:17;24.73;;;7.67;;
8704;SDS011;4389;41.932;25.904;2023-06-24T03:48:44;11.73;;;6.53;;
8704;SDS011;4389;41.932;25.904;2023-06-24T03:51:10;9.90;;;6.60;;
8704;SDS011;4389;41.932;25.904;2023-06-24T03:53:37;8.93;;;5.93;;
8704;SDS011;4389;41.932;25.904;2023-06-24T03:56:05;10.43;;;6.35;;
8704;SDS011;4389;41.932;25.904;2023-06-24T03:58:31;13.75;;;6.55;;
8704;SDS011;4389;41.932;25.904;2023-06-24T04:00:59;10.98;;;6.13;;
8704;SDS011;4389;41.932;25.904;2023-06-24T04:03:28;14.00;;;6.93;;
8704;SDS011;4389;41.932;25.904;2023-06-24T04:05:55;11.10;;;6.32;;
8704;SDS011;4389;41.932;25.904;2023-06-24T04:08:22;7.95;;;6.97;;
8704;SDS011;4389;41.932;25.904;2023-06-24T04:10:50;10.32;;;8.05;;
8704;SDS011;4389;41.932;25.904;2023-06-24T04:13:17;10.73;;;8.15;;
8704;SDS011;4389;41.932;25.904;2023-06-24T04:15:44;17.58;;;10.05;;
8704;SDS011;4389;41.932;25.904;2023-06-24T04:18:11;30.27;;;9.02;;
8704;SDS011;4389;41.932;25.904;2023-06-24T04:20:39;14.23;;;8.60;;
8704;SDS011;4389;41.932;25.904;2023-06-24T04:23:06;19.38;;;8.93;;
8704;SDS011;4389;41.932;25.904;2023-06-24T04:25:35;12.93;;;8.38;;
8704;SDS011;4389;41.932;25.904;2023-06-24T04:28:02;10.45;;;7.97;;
8704;SDS011;4389;41.932;25.904;2023-06-24T04:30:29;10.05;;;8.35;;
8704;SDS011;4389;41.932;25.904;2023-06-24T04:32:56;11.18;;;9.02;;
8704;SDS011;4389;41.932;25.904;2023-06-24T04:35:23;10.60;;;8.57;;
8704;SDS011;4389;41.932;25.904;2023-06-24T04:37:51;10.25;;;8.93;;
8704;SDS011;4389;41.932;25.904;2023-06-24T04:40:18;11.90;;;8.63;;
8704;SDS011;4389;41.932;25.904;2023-06-24T04:42:46;9.68;;;8.43;;
8704;SDS011;4389;41.932;25.904;2023-06-24T04:45:13;12.90;;;8.27;;
8704;SDS011;4389;41.932;25.904;2023-06-24T04:47:40;18.88;;;13.63;;
8704;SDS011;4389;41.932;25.904;2023-06-24T04:50:07;21.60;;;12.07;;
8704;SDS011;4389;41.932;25.904;2023-06-24T04:52:35;20.10;;;15.13;;
8704;SDS011;4389;41.932;25.904;2023-06-24T04:55:04;21.33;;;15.85;;
8704;SDS011;4389;41.932;25.904;2023-06-24T04:57:32;15.60;;;12.93;;
8704;SDS011;4389;41.932;25.904;2023-06-24T04:59:59;76.10;;;13.23;;
8704;SDS011;4389;41.932;25.904;2023-06-24T05:02:26;27.52;;;10.15;;
8704;SDS011;4389;41.932;25.904;2023-06-24T05:04:53;20.98;;;9.90;;
8704;SDS011;4389;41.932;25.904;2023-06-24T05:07:20;13.23;;;9.20;;
8704;SDS011;4389;41.932;25.904;2023-06-24T05:09:47;15.18;;;10.20;;
8704;SDS011;4389;41.932;25.904;2023-06-24T05:12:16;11.68;;;9.23;;
8704;SDS011;4389;41.932;25.904;2023-06-24T05:14:42;10.18;;;9.07;;
8704;SDS011;4389;41.932;25.904;2023-06-24T05:17:09;10.07;;;8.73;;
8704;SDS011;4389;41.932;25.904;2023-06-24T05:19:36;18.20;;;9.02;;
8704;SDS011;4389;41.932;25.904;2023-06-24T05:22:03;13.32;;;9.23;;
8704;SDS011;4389;41.932;25.904;2023-06-24T05:24:31;12.75;;;8.95;;
8704;SDS011;4389;41.932;25.904;2023-06-24T05:27:03;12.70;;;11.07;;
8704;SDS011;4389;41.932;25.904;2023-06-24T05:29:31;14.20;;;9.18;;
8704;SDS011;4389;41.932;25.904;2023-06-24T05:31:58;12.15;;;9.48;;
8704;SDS011;4389;41.932;25.904;2023-06-24T05:34:26;12.95;;;10.90;;
8704;SDS011;4389;41.932;25.904;2023-06-24T05:36:53;14.63;;;11.57;;
8704;SDS011;4389;41.932;25.904;2023-06-24T05:39:20;17.87;;;10.33;;
8704;SDS011;4389;41.932;25.904;2023-06-24T05:41:47;15.30;;;10.52;;
8704;SDS011;4389;41.932;25.904;2023-06-24T05:44:14;19.50;;;9.85;;
8704;SDS011;4389;41.932;25.904;2023-06-24T05:46:44;18.55;;;9.45;;
8704;SDS011;4389;41.932;25.904;2023-06-24T05:49:11;19.15;;;10.77;;
8704;SDS011;4389;41.932;25.904;2023-06-24T05:51:38;16.65;;;9.75;;
8704;SDS011;4389;41.932;25.904;2023-06-24T05:54:05;10.60;;;7.82;;
8704;SDS011;4389;41.932;25.904;2023-06-24T05:56:32;12.95;;;7.13;;
8704;SDS011;4389;41.932;25.904;2023-06-24T05:58:59;15.63;;;7.57;;
8704;SDS011;4389;41.932;25.904;2023-06-24T06:01:26;12.25;;;7.55;;
8704;SDS011;4389;41.932;25.904;2023-06-24T06:03:54;7.90;;;7.10;;
8704;SDS011;4389;41.932;25.904;2023-06-24T06:06:21;13.45;;;7.22;;
8704;SDS011;4389;41.932;25.904;2023-06-24T06:08:48;8.65;;;7.78;;
8704;SDS011;4389;41.932;25.904;2023-06-24T06:11:15;9.40;;;8.50;;
8704;SDS011;4389;41.932;25.904;2023-06-24T06:13:42;13.00;;;7.38;;
8704;SDS011;4389;41.932;25.904;2023-06-24T06:16:09;10.63;;;6.88;;
8704;SDS011;4389;41.932;25.904;2023-06-24T06:18:35;15.05;;;7.28;;
8704;SDS011;4389;41.932;25.904;2023-06-24T06:21:04;11.63;;;7.28;;
8704;SDS011;4389;41.932;25.904;2023-06-24T06:23:30;14.30;;;10.40;;
8704;SDS011;4389;41.932;25.904;2023-06-24T06:25:57;13.27;;;8.82;;
8704;SDS011;4389;41.932;25.904;2023-06-24T06:28:24;23.48;;;9.77;;
8704;SDS011;4389;41.932;25.904;2023-06-24T06:30:51;14.73;;;9.93;;
8704;SDS011;4389;41.932;25.904;2023-06-24T06:33:18;11.98;;;10.23;;
8704;SDS011;4389;41.932;25.904;2023-06-24T06:35:45;12.88;;;9.35;;
8704;SDS011;4389;41.932;25.904;2023-06-24T06:38:13;21.40;;;10.07;;
8704;SDS011;4389;41.932;25.904;2023-06-24T06:40:40;14.52;;;7.47;;
8704;SDS011;4389;41.932;25.904;2023-06-24T06:43:07;12.40;;;7.75;;
8704;SDS011;4389;41.932;25.904;2023-06-24T06:45:34;11.63;;;8.00;;
8704;SDS011;4389;41.932;25.904;2023-06-24T06:48:02;10.40;;;8.57;;
8704;SDS011;4389;41.932;25.904;2023-06-24T06:50:32;14.02;;;7.63;;
8704;SDS011;4389;41.932;25.904;2023-06-24T06:52:59;10.10;;;5.72;;
8704;SDS011;4389;41.932;25.904;2023-06-24T06:55:28;22.38;;;8.10;;
8704;SDS011;4389;41.932;25.904;2023-06-24T06:57:55;10.38;;;6.90;;
8704;SDS011;4389;41.932;25.904;2023-06-24T07:00:22;12.80;;;7.72;;
8704;SDS011;4389;41.932;25.904;2023-06-24T07:02:49;6.57;;;5.88;;
8704;SDS011;4389;41.932;25.904;2023-06-24T07:05:15;10.85;;;7.00;;
8704;SDS011;4389;41.932;25.904;2023-06-24T07:07:42;9.73;;;6.15;;
8704;SDS011;4389;41.932;25.904;2023-06-24T07:10:10;9.73;;;6.50;;
8704;SDS011;4389;41.932;25.904;2023-06-24T07:12:39;11.20;;;6.78;;
8704;SDS011;4389;41.932;25.904;2023-06-24T07:15:06;7.90;;;5.80;;
8704;SDS011;4389;41.932;25.904;2023-06-24T07:17:33;10.13;;;6.07;;
8704;SDS011;4389;41.932;25.904;2023-06-24T07:20:00;6.05;;;5.38;;
8704;SDS011;4389;41.932;25.904;2023-06-24T07:22:27;8.90;;;5.90;;
8704;SDS011;4389;41.932;25.904;2023-06-24T07:24:55;10.18;;;6.63;;
8704;SDS011;4389;41.932;25.904;2023-06-24T07:27:22;10.82;;;6.85;;
8704;SDS011;4389;41.932;25.904;2023-06-24T07:29:50;14.43;;;6.75;;
8704;SDS011;4389;41.932;25.904;2023-06-24T07:32:17;14.63;;;6.82;;
8704;SDS011;4389;41.932;25.904;2023-06-24T07:34:44;8.98;;;5.97;;
8704;SDS011;4389;41.932;25.904;2023-06-24T07:37:11;13.15;;;7.75;;
8704;SDS011;4389;41.932;25.904;2023-06-24T07:39:37;6.57;;;5.95;;
8704;SDS011;4389;41.932;25.904;2023-06-24T07:42:04;10.50;;;6.18;;
8704;SDS011;4389;41.932;25.904;2023-06-24T07:44:31;10.52;;;6.35;;
8704;SDS011;4389;41.932;25.904;2023-06-24T07:46:59;8.63;;;6.15;;
8704;SDS011;4389;41.932;25.904;2023-06-24T07:49:26;9.30;;;5.93;;
8704;SDS011;4389;41.932;25.904;2023-06-24T07:51:53;14.48;;;6.88;;
8704;SDS011;4389;41.932;25.904;2023-06-24T07:54:20;10.27;;;6.55;;
8704;SDS011;4389;41.932;25.904;2023-06-24T07:56:47;10.18;;;6.75;;
8704;SDS011;4389;41.932;25.904;2023-06-24T07:59:13;10.30;;;6.38;;
8704;SDS011;4389;41.932;25.904;2023-06-24T08:01:40;13.90;;;6.03;;
8704;SDS011;4389;41.932;25.904;2023-06-24T08:04:09;12.65;;;5.97;;
8704;SDS011;4389;41.932;25.904;2023-06-24T08:06:36;19.08;;;6.45;;
8704;SDS011;4389;41.932;25.904;2023-06-24T08:09:02;10.48;;;5.97;;
8704;SDS011;4389;41.932;25.904;2023-06-24T08:11:29;10.68;;;6.10;;
8704;SDS011;4389;41.932;25.904;2023-06-24T08:13:56;10.20;;;5.80;;
8704;SDS011;4389;41.932;25.904;2023-06-24T08:16:23;10.80;;;7.10;;
8704;SDS011;4389;41.932;25.904;2023-06-24T08:18:50;6.13;;;5.53;;
8704;SDS011;4389;41.932;25.904;2023-06-24T08:21:18;8.93;;;6.70;;
8704;SDS011;4389;41.932;25.904;2023-06-24T08:23:45;12.13;;;6.80;;
8704;SDS011;4389;41.932;25.904;2023-06-24T08:26:13;6.20;;;5.25;;
8704;SDS011;4389;41.932;25.904;2023-06-24T08:28:40;10.30;;;6.40;;
8704;SDS011;4389;41.932;25.904;2023-06-24T08:31:07;6.85;;;5.10;;
8704;SDS011;4389;41.932;25.904;2023-06-24T08:33:33;6.97;;;4.75;;
8704;SDS011;4389;41.932;25.904;2023-06-24T08:36:00;7.97;;;4.95;;
8704;SDS011;4389;41.932;25.904;2023-06-24T08:38:28;11.38;;;5.53;;
8704;SDS011;4389;41.932;25.904;2023-06-24T08:40:55;6.28;;;5.07;;
8704;SDS011;4389;41.932;25.904;2023-06-24T08:43:22;15.63;;;5.80;;
8704;SDS011;4389;41.932;25.904;2023-06-24T08:45:49;10.93;;;5.32;;
8704;SDS011;4389;41.932;25.904;2023-06-24T08:48:16;5.68;;;4.85;;
8704;SDS011;4389;41.932;25.904;2023-06-24T08:50:46;5.07;;;4.45;;
8704;SDS011;4389;41.932;25.904;2023-06-24T08:53:18;5.53;;;4.95;;
8704;SDS011;4389;41.932;25.904;2023-06-24T08:55:48;7.57;;;4.45;;
8704;SDS011;4389;41.932;25.904;2023-06-24T08:58:19;7.22;;;4.85;;
8704;SDS011;4389;41.932;25.904;2023-06-24T09:00:46;9.80;;;5.43;;
8704;SDS011;4389;41.932;25.904;2023-06-24T09:03:13;8.55;;;5.80;;
8704;SDS011;4389;41.932;25.904;2023-06-24T09:05:40;5.28;;;4.85;;
8704;SDS011;4389;41.932;25.904;2023-06-24T09:08:07;5.38;;;4.60;;
8704;SDS011;4389;41.932;25.904;2023-06-24T09:10:34;6.28;;;4.95;;
8704;SDS011;4389;41.932;25.904;2023-06-24T09:13:03;7.95;;;4.05;;
8704;SDS011;4389;41.932;25.904;2023-06-24T09:15:31;6.68;;;4.82;;
8704;SDS011;4389;41.932;25.904;2023-06-24T09:17:58;4.85;;;4.30;;
8704;SDS011;4389;41.932;25.904;2023-06-24T09:20:25;4.88;;;3.60;;
8704;SDS011;4389;41.932;25.904;2023-06-24T09:22:57;5.43;;;3.70;;
8704;SDS011;4389;41.932;25.904;2023-06-24T09:25:25;7.68;;;4.20;;
8704;SDS011;4389;41.932;25.904;2023-06-24T09:27:52;4.32;;;3.92;;
8704;SDS011;4389;41.932;25.904;2023-06-24T09:30:23;6.38;;;4.90;;
8704;SDS011;4389;41.932;25.904;2023-06-24T09:32:50;5.90;;;5.30;;
8704;SDS011;4389;41.932;25.904;2023-06-24T09:35:18;13.20;;;4.93;;
8704;SDS011;4389;41.932;25.904;2023-06-24T09:37:49;5.45;;;4.10;;
8704;SDS011;4389;41.932;25.904;2023-06-24T09:40:17;5.05;;;4.55;;
8704;SDS011;4389;41.932;25.904;2023-06-24T09:42:48;6.50;;;5.72;;
8704;SDS011;4389;41.932;25.904;2023-06-24T09:45:19;4.75;;;4.32;;
8704;SDS011;4389;41.932;25.904;2023-06-24T09:47:48;7.82;;;4.38;;
8704;SDS011;4389;41.932;25.904;2023-06-24T09:50:14;8.93;;;5.70;;
8704;SDS011;4389;41.932;25.904;2023-06-24T09:52:41;4.45;;;4.05;;
8704;SDS011;4389;41.932;25.904;2023-06-24T09:55:10;4.53;;;4.13;;
8704;SDS011;4389;41.932;25.904;2023-06-24T09:57:39;5.63;;;4.07;;
8704;SDS011;4389;41.932;25.904;2023-06-24T10:00:08;4.90;;;4.50;;
8704;SDS011;4389;41.932;25.904;2023-06-24T10:02:36;11.60;;;6.43;;
8704;SDS011;4389;41.932;25.904;2023-06-24T10:05:05;9.57;;;5.30;;
8704;SDS011;4389;41.932;25.904;2023-06-24T10:07:32;23.10;;;20.63;;
8704;SDS011;4389;41.932;25.904;2023-06-24T10:10:01;6.82;;;4.95;;
8704;SDS011;4389;41.932;25.904;2023-06-24T10:12:29;9.15;;;5.22;;
8704;SDS011;4389;41.932;25.904;2023-06-24T10:14:57;5.65;;;4.22;;
8704;SDS011;4389;41.932;25.904;2023-06-24T10:17:25;5.75;;;4.80;;
8704;SDS011;4389;41.932;25.904;2023-06-24T10:19:52;8.27;;;4.68;;
8704;SDS011;4389;41.932;25.904;2023-06-24T10:22:22;5.78;;;5.20;;
8704;SDS011;4389;41.932;25.904;2023-06-24T10:24:50;7.78;;;5.55;;
8704;SDS011;4389;41.932;25.904;2023-06-24T10:27:18;7.60;;;5.40;;
8704;SDS011;4389;41.932;25.904;2023-06-24T10:29:48;6.00;;;4.90;;
8704;SDS011;4389;41.932;25.904;2023-06-24T10:32:15;4.85;;;4.20;;
8704;SDS011;4389;41.932;25.904;2023-06-24T10:34:44;6.40;;;4.18;;
8704;SDS011;4389;41.932;25.904;2023-06-24T10:37:12;6.70;;;4.88;;
8704;SDS011;4389;41.932;25.904;2023-06-24T10:39:46;4.82;;;4.43;;
8704;SDS011;4389;41.932;25.904;2023-06-24T10:42:27;7.35;;;4.50;;
8704;SDS011;4389;41.932;25.904;2023-06-24T10:45:17;7.30;;;4.75;;
8704;SDS011;4389;41.932;25.904;2023-06-24T10:47:46;6.60;;;4.75;;
8704;SDS011;4389;41.932;25.904;2023-06-24T10:50:19;7.45;;;4.82;;
8704;SDS011;4389;41.932;25.904;2023-06-24T10:52:47;6.53;;;5.05;;
8704;SDS011;4389;41.932;25.904;2023-06-24T10:55:17;5.22;;;4.50;;
8704;SDS011;4389;41.932;25.904;2023-06-24T10:57:44;13.40;;;4.13;;
8704;SDS011;4389;41.932;25.904;2023-06-24T11:00:12;5.63;;;4.32;;
8704;SDS011;4389;41.932;25.904;2023-06-24T11:02:40;4.75;;;3.95;;
8704;SDS011;4389;41.932;25.904;2023-06-24T11:05:07;5.47;;;3.75;;
8704;SDS011;4389;41.932;25.904;2023-06-24T11:07:36;4.30;;;3.90;;
8704;SDS011;4389;41.932;25.904;2023-06-24T11:10:04;8.15;;;4.65;;
8704;SDS011;4389;41.932;25.904;2023-06-24T11:12:34;4.15;;;3.75;;
8704;SDS011;4389;41.932;25.904;2023-06-24T11:15:03;5.97;;;4.68;;
8704;SDS011;4389;41.932;25.904;2023-06-24T11:17:31;5.50;;;3.85;;
8704;SDS011;4389;41.932;25.904;2023-06-24T11:19:59;4.40;;;4.00;;
8704;SDS011;4389;41.932;25.904;2023-06-24T11:22:26;4.47;;;3.95;;
8704;SDS011;4389;41.932;25.904;2023-06-24T11:24:54;4.38;;;3.80;;
8704;SDS011;4389;41.932;25.904;2023-06-24T11:27:25;6.35;;;3.92;;
8704;SDS011;4389;41.932;25.904;2023-06-24T11:29:54;4.88;;;4.20;;
8704;SDS011;4389;41.932;25.904;2023-06-24T11:32:23;3.72;;;3.33;;
8704;SDS011;4389;41.932;25.904;2023-06-24T11:34:50;4.60;;;3.38;;
8704;SDS011;4389;41.932;25.904;2023-06-24T11:37:18;8.40;;;4.10;;
8704;SDS011;4389;41.932;25.904;2023-06-24T11:39:45;7.65;;;4.20;;
8704;SDS011;4389;41.932;25.904;2023-06-24T11:42:28;5.60;;;4.38;;
8704;SDS011;4389;41.932;25.904;2023-06-24T11:45:00;12.18;;;8.35;;
8704;SDS011;4389;41.932;25.904;2023-06-24T11:47:31;4.30;;;3.90;;
8704;SDS011;4389;41.932;25.904;2023-06-24T11:49:59;4.78;;;4.35;;
8704;SDS011;4389;41.932;25.904;2023-06-24T11:55:11;5.22;;;4.47;;
8704;SDS011;4389;41.932;25.904;2023-06-24T11:57:51;4.95;;;3.75;;
8704;SDS011;4389;41.932;25.904;2023-06-24T12:00:21;7.40;;;3.50;;
8704;SDS011;4389;41.932;25.904;2023-06-24T12:02:50;7.78;;;3.60;;
8704;SDS011;4389;41.932;25.904;2023-06-24T12:05:25;4.43;;;3.60;;
8704;SDS011;4389;41.932;25.904;2023-06-24T12:07:54;9.35;;;3.90;;
8704;SDS011;4389;41.932;25.904;2023-06-24T12:10:22;6.10;;;3.55;;
8704;SDS011;4389;41.932;25.904;2023-06-24T12:12:49;7.95;;;6.60;;
8704;SDS011;4389;41.932;25.904;2023-06-24T12:15:16;6.07;;;4.38;;
8704;SDS011;4389;41.932;25.904;2023-06-24T12:17:44;5.97;;;4.35;;
8704;SDS011;4389;41.932;25.904;2023-06-24T12:20:11;6.97;;;3.83;;
8704;SDS011;4389;41.932;25.904;2023-06-24T12:22:40;4.70;;;3.92;;
8704;SDS011;4389;41.932;25.904;2023-06-24T12:25:08;4.47;;;4.07;;
8704;SDS011;4389;41.932;25.904;2023-06-24T12:27:35;3.80;;;3.50;;
8704;SDS011;4389;41.932;25.904;2023-06-24T12:30:02;4.13;;;3.55;;
8704;SDS011;4389;41.932;25.904;2023-06-24T12:32:30;3.53;;;3.22;;
8704;SDS011;4389;41.932;25.904;2023-06-24T12:34:58;6.55;;;3.58;;
8704;SDS011;4389;41.932;25.904;2023-06-24T12:37:25;5.70;;;5.15;;
8704;SDS011;4389;41.932;25.904;2023-06-24T12:39:51;7.15;;;3.95;;
8704;SDS011;4389;41.932;25.904;2023-06-24T12:42:18;4.60;;;3.88;;
8704;SDS011;4389;41.932;25.904;2023-06-24T12:44:45;4.57;;;3.30;;
8704;SDS011;4389;41.932;25.904;2023-06-24T12:47:12;4.43;;;3.92;;
8704;SDS011;4389;41.932;25.904;2023-06-24T12:49:39;5.97;;;3.67;;
8704;SDS011;4389;41.932;25.904;2023-06-24T12:52:07;5.55;;;3.83;;
8704;SDS011;4389;41.932;25.904;2023-06-24T12:54:34;5.10;;;3.85;;
8704;SDS011;4389;41.932;25.904;2023-06-24T12:57:01;4.68;;;3.90;;
8704;SDS011;4389;41.932;25.904;2023-06-24T12:59:29;4.38;;;3.95;;
8704;SDS011;4389;41.932;25.904;2023-06-24T13:01:55;4.30;;;3.90;;
8704;SDS011;4389;41.932;25.904;2023-06-24T13:04:22;6.55;;;4.72;;
8704;SDS011;4389;41.932;25.904;2023-06-24T13:06:49;5.00;;;3.65;;
8704;SDS011;4389;41.932;25.904;2023-06-24T13:09:19;4.00;;;3.60;;
8704;SDS011;4389;41.932;25.904;2023-06-24T13:11:46;5.60;;;3.72;;
8704;SDS011;4389;41.932;25.904;2023-06-24T13:14:13;8.55;;;4.00;;
8704;SDS011;4389;41.932;25.904;2023-06-24T13:16:40;5.00;;;4.03;;
8704;SDS011;4389;41.932;25.904;2023-06-24T13:19:07;4.50;;;4.10;;
8704;SDS011;4389;41.932;25.904;2023-06-24T13:21:34;4.22;;;3.83;;
8704;SDS011;4389;41.932;25.904;2023-06-24T13:24:01;4.43;;;4.03;;
8704;SDS011;4389;41.932;25.904;2023-06-24T13:26:29;4.32;;;3.90;;
8704;SDS011;4389;41.932;25.904;2023-06-24T13:28:56;6.70;;;4.50;;
8704;SDS011;4389;41.932;25.904;2023-06-24T13:31:23;5.50;;;4.28;;
8704;SDS011;4389;41.932;25.904;2023-06-24T13:33:50;7.15;;;4.45;;
8704;SDS011;4389;41.932;25.904;2023-06-24T13:36:27;8.75;;;4.85;;
8704;SDS011;4389;41.932;25.904;2023-06-24T13:38:56;7.55;;;4.00;;
8704;SDS011;4389;41.932;25.904;2023-06-24T13:41:23;6.18;;;4.03;;
8704;SDS011;4389;41.932;25.904;2023-06-24T13:43:52;5.28;;;4.00;;
8704;SDS011;4389;41.932;25.904;2023-06-24T13:46:19;5.93;;;3.53;;
8704;SDS011;4389;41.932;25.904;2023-06-24T13:48:46;9.55;;;4.53;;
8704;SDS011;4389;41.932;25.904;2023-06-24T13:51:13;6.63;;;3.90;;
8704;SDS011;4389;41.932;25.904;2023-06-24T13:53:40;3.83;;;3.53;;
8704;SDS011;4389;41.932;25.904;2023-06-24T13:56:07;7.60;;;3.95;;
8704;SDS011;4389;41.932;25.904;2023-06-24T13:58:34;6.25;;;3.80;;
8704;SDS011;4389;41.932;25.904;2023-06-24T14:01:02;7.13;;;3.90;;
8704;SDS011;4389;41.932;25.904;2023-06-24T14:03:29;5.22;;;4.32;;
8704;SDS011;4389;41.932;25.904;2023-06-24T14:05:56;8.30;;;3.92;;
8704;SDS011;4389;41.932;25.904;2023-06-24T14:08:23;7.18;;;3.75;;
8704;SDS011;4389;41.932;25.904;2023-06-24T14:10:50;8.23;;;3.92;;
8704;SDS011;4389;41.932;25.904;2023-06-24T14:13:17;4.32;;;3.55;;
8704;SDS011;4389;41.932;25.904;2023-06-24T14:15:44;6.05;;;3.67;;
8704;SDS011;4389;41.932;25.904;2023-06-24T14:18:12;3.92;;;3.63;;
8704;SDS011;4389;41.932;25.904;2023-06-24T14:20:39;5.13;;;3.58;;
8704;SDS011;4389;41.932;25.904;2023-06-24T14:23:06;3.63;;;3.33;;
8704;SDS011;4389;41.932;25.904;2023-06-24T14:25:32;3.65;;;3.30;;
8704;SDS011;4389;41.932;25.904;2023-06-24T14:27:59;3.85;;;3.45;;
8704;SDS011;4389;41.932;25.904;2023-06-24T14:30:26;9.23;;;4.30;;
8704;SDS011;4389;41.932;25.904;2023-06-24T14:32:53;3.17;;;2.88;;
8704;SDS011;4389;41.932;25.904;2023-06-24T14:35:21;4.20;;;3.10;;
8704;SDS011;4389;41.932;25.904;2023-06-24T14:37:48;5.07;;;3.97;;
8704;SDS011;4389;41.932;25.904;2023-06-24T14:40:15;5.97;;;3.47;;
8704;SDS011;4389;41.932;25.904;2023-06-24T14:42:42;6.22;;;3.55;;
8704;SDS011;4389;41.932;25.904;2023-06-24T14:45:09;3.95;;;3.55;;
8704;SDS011;4389;41.932;25.904;2023-06-24T14:47:36;4.10;;;3.70;;
8704;SDS011;4389;41.932;25.904;2023-06-24T14:50:03;3.88;;;3.50;;
8704;SDS011;4389;41.932;25.904;2023-06-24T14:52:32;5.55;;;3.50;;
8704;SDS011;4389;41.932;25.904;2023-06-24T14:54:59;4.40;;;3.60;;
8704;SDS011;4389;41.932;25.904;2023-06-24T14:57:26;5.28;;;3.28;;
8704;SDS011;4389;41.932;25.904;2023-06-24T14:59:53;4.80;;;3.45;;
8704;SDS011;4389;41.932;25.904;2023-06-24T15:02:19;6.47;;;3.60;;
8704;SDS011;4389;41.932;25.904;2023-06-24T15:04:46;6.70;;;3.60;;
8704;SDS011;4389;41.932;25.904;2023-06-24T15:07:13;4.03;;;3.13;;